sensor_id;sensor_type;location;lat;lon;timestamp;temperature;humidity
25732;DHT22;13585;50.864;4.406;2022-09-13T00:01:17;26.20;54.00
25732;DHT22;13585;50.864;4.406;2022-09-13T00:03:43;26.20;54.00
25732;DHT22;13585;50.864;4.406;2022-09-13T00:06:12;26.20;54.00
25732;DHT22;13585;50.864;4.406;2022-09-13T00:08:38;26.20;54.60
25732;DHT22;13585;50.864;4.406;2022-09-13T00:11:04;26.20;54.00
25732;DHT22;13585;50.864;4.406;2022-09-13T00:13:30;26.20;54.00
25732;DHT22;13585;50.864;4.406;2022-09-13T00:15:56;26.20;54.00
25732;DHT22;13585;50.864;4.406;2022-09-13T00:18:23;26.20;54.00
25732;DHT22;13585;50.864;4.406;2022-09-13T00:20:49;26.20;54.00
25732;DHT22;13585;50.864;4.406;2022-09-13T00:23:15;26.20;54.10
25732;DHT22;13585;50.864;4.406;2022-09-13T00:25:41;26.20;54.00
25732;DHT22;13585;50.864;4.406;2022-09-13T00:28:07;26.20;54.00
25732;DHT22;13585;50.864;4.406;2022-09-13T00:30:33;26.20;54.00
25732;DHT22;13585;50.864;4.406;2022-09-13T00:32:59;26.20;54.00
25732;DHT22;13585;50.864;4.406;2022-09-13T00:35:28;26.20;54.00
25732;DHT22;13585;50.864;4.406;2022-09-13T00:37:54;26.20;54.00
25732;DHT22;13585;50.864;4.406;2022-09-13T00:40:20;26.20;54.00
25732;DHT22;13585;50.864;4.406;2022-09-13T00:42:47;26.20;54.00
25732;DHT22;13585;50.864;4.406;2022-09-13T00:45:16;26.20;54.00
25732;DHT22;13585;50.864;4.406;2022-09-13T00:47:56;26.20;54.10
25732;DHT22;13585;50.864;4.406;2022-09-13T00:50:45;26.20;54.10
25732;DHT22;13585;50.864;4.406;2022-09-13T00:53:22;26.20;54.10
25732;DHT22;13585;50.864;4.406;2022-09-13T00:58:26;26.20;54.00
25732;DHT22;13585;50.864;4.406;2022-09-13T01:00:55;26.20;54.10
25732;DHT22;13585;50.864;4.406;2022-09-13T01:03:26;26.20;54.10
25732;DHT22;13585;50.864;4.406;2022-09-13T01:06:01;26.20;54.00
25732;DHT22;13585;50.864;4.406;2022-09-13T01:08:30;26.20;54.10
25732;DHT22;13585;50.864;4.406;2022-09-13T01:10:59;26.20;54.00
25732;DHT22;13585;50.864;4.406;2022-09-13T01:13:31;26.20;54.00
25732;DHT22;13585;50.864;4.406;2022-09-13T01:16:01;26.20;54.10
25732;DHT22;13585;50.864;4.406;2022-09-13T01:18:27;26.20;54.10
25732;DHT22;13585;50.864;4.406;2022-09-13T01:32:48;26.10;54.00
25732;DHT22;13585;50.864;4.406;2022-09-13T01:43:38;26.10;54.10
25732;DHT22;13585;50.864;4.406;2022-09-13T01:48:54;26.20;54.10
25732;DHT22;13585;50.864;4.406;2022-09-13T01:51:31;26.10;54.10
25732;DHT22;13585;50.864;4.406;2022-09-13T01:54:20;26.20;54.10
25732;DHT22;13585;50.864;4.406;2022-09-13T02:04:40;26.20;54.10
25732;DHT22;13585;50.864;4.406;2022-09-13T02:07:10;26.10;54.00
25732;DHT22;13585;50.864;4.406;2022-09-13T02:09:44;26.20;54.10
25732;DHT22;13585;50.864;4.406;2022-09-13T02:12:20;26.10;54.00
25732;DHT22;13585;50.864;4.406;2022-09-13T02:18:08;26.10;54.10
25732;DHT22;13585;50.864;4.406;2022-09-13T02:20:38;26.20;54.00
25732;DHT22;13585;50.864;4.406;2022-09-13T02:23:18;26.20;54.00
25732;DHT22;13585;50.864;4.406;2022-09-13T02:25:46;26.20;54.70
25732;DHT22;13585;50.864;4.406;2022-09-13T02:28:20;26.20;54.10
25732;DHT22;13585;50.864;4.406;2022-09-13T02:30:51;26.20;54.10
25732;DHT22;13585;50.864;4.406;2022-09-13T02:33:23;26.20;54.10
25732;DHT22;13585;50.864;4.406;2022-09-13T02:36:00;26.20;54.10
25732;DHT22;13585;50.864;4.406;2022-09-13T02:38:31;26.20;54.10
25732;DHT22;13585;50.864;4.406;2022-09-13T02:41:13;26.20;54.10
25732;DHT22;13585;50.864;4.406;2022-09-13T02:44:10;26.20;54.10
25732;DHT22;13585;50.864;4.406;2022-09-13T02:53:13;26.20;54.10
25732;DHT22;13585;50.864;4.406;2022-09-13T02:58:22;26.20;54.10
25732;DHT22;13585;50.864;4.406;2022-09-13T03:00:50;26.10;54.10
25732;DHT22;13585;50.864;4.406;2022-09-13T03:03:16;26.20;54.10
25732;DHT22;13585;50.864;4.406;2022-09-13T03:05:42;26.20;54.10
25732;DHT22;13585;50.864;4.406;2022-09-13T03:08:09;26.10;54.10
25732;DHT22;13585;50.864;4.406;2022-09-13T03:16:27;26.10;54.10
25732;DHT22;13585;50.864;4.406;2022-09-13T03:19:05;26.20;54.10
25732;DHT22;13585;50.864;4.406;2022-09-13T03:30:12;26.10;54.10
25732;DHT22;13585;50.864;4.406;2022-09-13T03:38:07;26.10;54.10
25732;DHT22;13585;50.864;4.406;2022-09-13T03:43:26;26.10;54.10
25732;DHT22;13585;50.864;4.406;2022-09-13T03:46:12;26.20;54.10
25732;DHT22;13585;50.864;4.406;2022-09-13T03:48:40;26.20;54.10
25732;DHT22;13585;50.864;4.406;2022-09-13T03:51:07;26.20;54.10
25732;DHT22;13585;50.864;4.406;2022-09-13T03:53:38;26.10;54.10
25732;DHT22;13585;50.864;4.406;2022-09-13T03:56:16;26.20;54.10
25732;DHT22;13585;50.864;4.406;2022-09-13T03:58:42;26.20;54.00
25732;DHT22;13585;50.864;4.406;2022-09-13T04:01:08;26.20;53.90
25732;DHT22;13585;50.864;4.406;2022-09-13T04:03:36;26.20;54.00
25732;DHT22;13585;50.864;4.406;2022-09-13T04:06:02;26.10;54.00
25732;DHT22;13585;50.864;4.406;2022-09-13T04:08:29;26.10;54.00
25732;DHT22;13585;50.864;4.406;2022-09-13T04:10:55;26.10;54.00
25732;DHT22;13585;50.864;4.406;2022-09-13T04:13:21;26.10;54.00
25732;DHT22;13585;50.864;4.406;2022-09-13T04:15:48;26.20;54.10
25732;DHT22;13585;50.864;4.406;2022-09-13T04:18:15;26.10;54.00
25732;DHT22;13585;50.864;4.406;2022-09-13T04:20:41;26.10;54.00
25732;DHT22;13585;50.864;4.406;2022-09-13T04:23:07;26.20;54.10
25732;DHT22;13585;50.864;4.406;2022-09-13T04:25:32;26.20;54.10
25732;DHT22;13585;50.864;4.406;2022-09-13T04:27:58;26.20;54.10
25732;DHT22;13585;50.864;4.406;2022-09-13T04:30:25;26.10;54.00
25732;DHT22;13585;50.864;4.406;2022-09-13T04:32:51;26.10;54.00
25732;DHT22;13585;50.864;4.406;2022-09-13T04:35:17;26.10;54.00
25732;DHT22;13585;50.864;4.406;2022-09-13T04:37:44;26.20;54.10
25732;DHT22;13585;50.864;4.406;2022-09-13T04:40:11;26.20;54.00
25732;DHT22;13585;50.864;4.406;2022-09-13T04:42:37;26.20;54.00
25732;DHT22;13585;50.864;4.406;2022-09-13T04:45:03;26.20;54.10
25732;DHT22;13585;50.864;4.406;2022-09-13T04:47:29;26.20;54.00
25732;DHT22;13585;50.864;4.406;2022-09-13T04:49:55;26.10;54.00
25732;DHT22;13585;50.864;4.406;2022-09-13T04:52:21;26.20;54.00
25732;DHT22;13585;50.864;4.406;2022-09-13T04:54:47;26.20;54.10
25732;DHT22;13585;50.864;4.406;2022-09-13T04:57:14;26.10;54.00
25732;DHT22;13585;50.864;4.406;2022-09-13T04:59:41;26.10;54.00
25732;DHT22;13585;50.864;4.406;2022-09-13T05:02:07;26.20;54.00
25732;DHT22;13585;50.864;4.406;2022-09-13T05:04:33;26.20;54.10
25732;DHT22;13585;50.864;4.406;2022-09-13T05:06:59;26.10;54.00
25732;DHT22;13585;50.864;4.406;2022-09-13T05:09:25;26.10;54.00
25732;DHT22;13585;50.864;4.406;2022-09-13T05:11:51;26.10;54.00
25732;DHT22;13585;50.864;4.406;2022-09-13T05:14:18;26.20;54.00
25732;DHT22;13585;50.864;4.406;2022-09-13T05:16:44;26.10;54.00
25732;DHT22;13585;50.864;4.406;2022-09-13T05:19:11;26.10;54.00
25732;DHT22;13585;50.864;4.406;2022-09-13T05:21:37;26.20;54.10
25732;DHT22;13585;50.864;4.406;2022-09-13T05:24:04;26.20;54.10
25732;DHT22;13585;50.864;4.406;2022-09-13T05:26:30;26.20;54.10
25732;DHT22;13585;50.864;4.406;2022-09-13T05:28:57;26.10;54.00
25732;DHT22;13585;50.864;4.406;2022-09-13T05:31:28;26.10;54.00
25732;DHT22;13585;50.864;4.406;2022-09-13T05:34:00;26.10;54.00
25732;DHT22;13585;50.864;4.406;2022-09-13T05:36:26;26.20;54.10
25732;DHT22;13585;50.864;4.406;2022-09-13T05:38:53;26.20;54.10
25732;DHT22;13585;50.864;4.406;2022-09-13T05:41:19;26.10;54.00
25732;DHT22;13585;50.864;4.406;2022-09-13T05:43:45;26.10;54.00
25732;DHT22;13585;50.864;4.406;2022-09-13T05:46:16;26.20;54.10
25732;DHT22;13585;50.864;4.406;2022-09-13T05:48:42;26.10;54.10
25732;DHT22;13585;50.864;4.406;2022-09-13T05:53:40;26.20;54.20
25732;DHT22;13585;50.864;4.406;2022-09-13T05:56:11;26.10;54.20
25732;DHT22;13585;50.864;4.406;2022-09-13T05:58:39;26.10;54.20
25732;DHT22;13585;50.864;4.406;2022-09-13T06:01:06;26.20;54.20
25732;DHT22;13585;50.864;4.406;2022-09-13T06:03:32;26.20;54.20
25732;DHT22;13585;50.864;4.406;2022-09-13T06:05:58;26.20;54.30
25732;DHT22;13585;50.864;4.406;2022-09-13T06:08:25;26.20;54.30
25732;DHT22;13585;50.864;4.406;2022-09-13T06:10:55;26.10;54.30
25732;DHT22;13585;50.864;4.406;2022-09-13T06:13:23;26.20;54.40
25732;DHT22;13585;50.864;4.406;2022-09-13T06:15:49;26.10;54.30
25732;DHT22;13585;50.864;4.406;2022-09-13T06:18:15;26.20;54.40
25732;DHT22;13585;50.864;4.406;2022-09-13T06:20:42;26.20;54.40
25732;DHT22;13585;50.864;4.406;2022-09-13T06:23:08;26.10;54.40
25732;DHT22;13585;50.864;4.406;2022-09-13T06:25:40;26.10;54.40
25732;DHT22;13585;50.864;4.406;2022-09-13T06:28:06;26.10;54.40
25732;DHT22;13585;50.864;4.406;2022-09-13T06:30:32;26.10;54.40
25732;DHT22;13585;50.864;4.406;2022-09-13T06:32:58;26.20;54.40
25732;DHT22;13585;50.864;4.406;2022-09-13T06:35:24;26.20;54.40
25732;DHT22;13585;50.864;4.406;2022-09-13T06:37:50;26.10;54.40
25732;DHT22;13585;50.864;4.406;2022-09-13T06:40:16;26.10;54.40
25732;DHT22;13585;50.864;4.406;2022-09-13T06:42:42;26.20;54.40
25732;DHT22;13585;50.864;4.406;2022-09-13T06:45:08;26.10;54.30
25732;DHT22;13585;50.864;4.406;2022-09-13T06:47:34;26.20;54.40
25732;DHT22;13585;50.864;4.406;2022-09-13T06:50:00;26.20;54.40
25732;DHT22;13585;50.864;4.406;2022-09-13T06:52:26;26.20;54.40
25732;DHT22;13585;50.864;4.406;2022-09-13T06:54:52;26.20;54.40
25732;DHT22;13585;50.864;4.406;2022-09-13T06:57:18;26.20;54.40
25732;DHT22;13585;50.864;4.406;2022-09-13T06:59:44;26.10;54.30
25732;DHT22;13585;50.864;4.406;2022-09-13T07:02:10;26.20;54.30
25732;DHT22;13585;50.864;4.406;2022-09-13T07:04:36;26.20;54.40
25732;DHT22;13585;50.864;4.406;2022-09-13T07:07:01;26.20;54.40
25732;DHT22;13585;50.864;4.406;2022-09-13T07:09:27;26.10;54.30
25732;DHT22;13585;50.864;4.406;2022-09-13T07:11:54;26.10;54.30
25732;DHT22;13585;50.864;4.406;2022-09-13T07:14:25;26.10;54.30
25732;DHT22;13585;50.864;4.406;2022-09-13T07:16:51;26.20;54.40
25732;DHT22;13585;50.864;4.406;2022-09-13T07:19:23;26.20;54.40
25732;DHT22;13585;50.864;4.406;2022-09-13T07:21:49;26.20;54.40
25732;DHT22;13585;50.864;4.406;2022-09-13T07:24:16;26.20;54.30
25732;DHT22;13585;50.864;4.406;2022-09-13T07:26:42;26.20;54.30
25732;DHT22;13585;50.864;4.406;2022-09-13T07:29:11;26.10;54.30
25732;DHT22;13585;50.864;4.406;2022-09-13T07:31:41;26.20;54.40
25732;DHT22;13585;50.864;4.406;2022-09-13T07:34:18;26.10;54.30
25732;DHT22;13585;50.864;4.406;2022-09-13T07:36:45;26.20;54.40
25732;DHT22;13585;50.864;4.406;2022-09-13T07:39:12;26.10;54.30
25732;DHT22;13585;50.864;4.406;2022-09-13T07:41:38;26.20;54.40
25732;DHT22;13585;50.864;4.406;2022-09-13T07:44:04;26.10;54.30
25732;DHT22;13585;50.864;4.406;2022-09-13T07:46:33;26.10;54.30
25732;DHT22;13585;50.864;4.406;2022-09-13T07:49:02;26.20;54.40
25732;DHT22;13585;50.864;4.406;2022-09-13T07:51:30;26.10;54.30
25732;DHT22;13585;50.864;4.406;2022-09-13T07:54:01;26.10;54.40
25732;DHT22;13585;50.864;4.406;2022-09-13T07:56:32;26.20;54.40
25732;DHT22;13585;50.864;4.406;2022-09-13T07:59:00;26.20;54.50
25732;DHT22;13585;50.864;4.406;2022-09-13T08:04:02;26.20;54.40
25732;DHT22;13585;50.864;4.406;2022-09-13T08:06:30;26.20;54.40
25732;DHT22;13585;50.864;4.406;2022-09-13T08:08:57;26.20;54.50
25732;DHT22;13585;50.864;4.406;2022-09-13T08:13:54;26.20;54.50
25732;DHT22;13585;50.864;4.406;2022-09-13T08:16:21;26.20;54.50
25732;DHT22;13585;50.864;4.406;2022-09-13T08:18:55;26.20;54.50
25732;DHT22;13585;50.864;4.406;2022-09-13T08:21:21;26.20;54.50
25732;DHT22;13585;50.864;4.406;2022-09-13T08:23:48;26.20;54.60
25732;DHT22;13585;50.864;4.406;2022-09-13T08:26:16;26.30;54.60
25732;DHT22;13585;50.864;4.406;2022-09-13T08:28:42;26.20;54.60
25732;DHT22;13585;50.864;4.406;2022-09-13T08:31:14;26.20;54.70
25732;DHT22;13585;50.864;4.406;2022-09-13T08:33:45;26.20;54.60
25732;DHT22;13585;50.864;4.406;2022-09-13T08:36:13;26.20;55.20
25732;DHT22;13585;50.864;4.406;2022-09-13T08:38:47;26.20;54.50
25732;DHT22;13585;50.864;4.406;2022-09-13T08:44:16;26.20;54.70
25732;DHT22;13585;50.864;4.406;2022-09-13T08:46:46;26.20;54.50
25732;DHT22;13585;50.864;4.406;2022-09-13T08:49:21;26.20;54.60
25732;DHT22;13585;50.864;4.406;2022-09-13T08:51:54;26.20;54.60
25732;DHT22;13585;50.864;4.406;2022-09-13T08:54:21;26.20;54.60
25732;DHT22;13585;50.864;4.406;2022-09-13T08:56:57;26.20;54.60
25732;DHT22;13585;50.864;4.406;2022-09-13T09:05:13;26.20;54.70
25732;DHT22;13585;50.864;4.406;2022-09-13T09:10:37;26.20;54.70
25732;DHT22;13585;50.864;4.406;2022-09-13T09:16:01;26.20;55.40
25732;DHT22;13585;50.864;4.406;2022-09-13T09:18:39;26.20;54.70
25732;DHT22;13585;50.864;4.406;2022-09-13T09:21:12;26.20;54.80
25732;DHT22;13585;50.864;4.406;2022-09-13T09:23:53;26.20;54.80
25732;DHT22;13585;50.864;4.406;2022-09-13T09:26:22;26.20;54.80
25732;DHT22;13585;50.864;4.406;2022-09-13T09:28:54;26.20;54.80
25732;DHT22;13585;50.864;4.406;2022-09-13T09:31:46;26.20;54.80
25732;DHT22;13585;50.864;4.406;2022-09-13T09:39:30;26.20;54.80
25732;DHT22;13585;50.864;4.406;2022-09-13T09:45:27;26.20;54.80
25732;DHT22;13585;50.864;4.406;2022-09-13T09:47:55;26.20;54.80
25732;DHT22;13585;50.864;4.406;2022-09-13T09:50:27;26.20;54.80
25732;DHT22;13585;50.864;4.406;2022-09-13T09:53:22;26.20;54.80
25732;DHT22;13585;50.864;4.406;2022-09-13T09:56:26;26.20;54.80
25732;DHT22;13585;50.864;4.406;2022-09-13T09:59:55;26.20;54.80
25732;DHT22;13585;50.864;4.406;2022-09-13T10:02:23;26.20;54.80
25732;DHT22;13585;50.864;4.406;2022-09-13T10:04:55;26.30;54.90
25732;DHT22;13585;50.864;4.406;2022-09-13T10:07:25;26.20;54.80
25732;DHT22;13585;50.864;4.406;2022-09-13T10:10:04;26.30;54.80
25732;DHT22;13585;50.864;4.406;2022-09-13T10:13:04;26.20;54.70
25732;DHT22;13585;50.864;4.406;2022-09-13T10:15:33;26.20;54.80
25732;DHT22;13585;50.864;4.406;2022-09-13T10:18:15;26.20;54.90
25732;DHT22;13585;50.864;4.406;2022-09-13T10:20:42;26.20;54.80
25732;DHT22;13585;50.864;4.406;2022-09-13T10:23:24;26.20;54.80
25732;DHT22;13585;50.864;4.406;2022-09-13T10:29:08;26.20;54.80
25732;DHT22;13585;50.864;4.406;2022-09-13T10:31:55;26.20;54.90
25732;DHT22;13585;50.864;4.406;2022-09-13T10:34:27;26.20;54.80
25732;DHT22;13585;50.864;4.406;2022-09-13T10:39:27;26.20;54.80
25732;DHT22;13585;50.864;4.406;2022-09-13T10:42:05;26.20;54.80
25732;DHT22;13585;50.864;4.406;2022-09-13T10:44:45;26.20;54.80
25732;DHT22;13585;50.864;4.406;2022-09-13T10:47:28;26.20;54.80
25732;DHT22;13585;50.864;4.406;2022-09-13T10:56:04;26.20;54.80
25732;DHT22;13585;50.864;4.406;2022-09-13T10:58:30;26.10;54.70
25732;DHT22;13585;50.864;4.406;2022-09-13T11:07:07;26.20;55.00
25732;DHT22;13585;50.864;4.406;2022-09-13T11:09:40;26.20;55.10
25732;DHT22;13585;50.864;4.406;2022-09-13T11:12:22;26.20;55.10
25732;DHT22;13585;50.864;4.406;2022-09-13T11:20:57;26.20;55.40
25732;DHT22;13585;50.864;4.406;2022-09-13T11:29:30;26.20;55.60
25732;DHT22;13585;50.864;4.406;2022-09-13T11:32:21;26.20;55.70
25732;DHT22;13585;50.864;4.406;2022-09-13T11:40:47;26.20;55.80
25732;DHT22;13585;50.864;4.406;2022-09-13T11:43:37;26.20;55.80
25732;DHT22;13585;50.864;4.406;2022-09-13T11:57:22;26.20;55.80
25732;DHT22;13585;50.864;4.406;2022-09-13T12:02:54;26.20;56.00
25732;DHT22;13585;50.864;4.406;2022-09-13T12:05:51;26.20;56.00
25732;DHT22;13585;50.864;4.406;2022-09-13T12:08:39;26.30;56.20
25732;DHT22;13585;50.864;4.406;2022-09-13T12:14:57;26.20;56.20
25732;DHT22;13585;50.864;4.406;2022-09-13T12:17:34;26.20;56.00
25732;DHT22;13585;50.864;4.406;2022-09-13T12:20:03;26.20;56.00
25732;DHT22;13585;50.864;4.406;2022-09-13T12:22:34;26.20;56.00
25732;DHT22;13585;50.864;4.406;2022-09-13T12:25:33;26.30;56.10
25732;DHT22;13585;50.864;4.406;2022-09-13T12:31:48;26.20;56.10
25732;DHT22;13585;50.864;4.406;2022-09-13T12:34:21;26.20;56.00
25732;DHT22;13585;50.864;4.406;2022-09-13T13:05:36;26.20;56.10
25732;DHT22;13585;50.864;4.406;2022-09-13T13:08:06;26.20;56.20
25732;DHT22;13585;50.864;4.406;2022-09-13T13:10:42;26.20;56.20
25732;DHT22;13585;50.864;4.406;2022-09-13T13:13:14;26.20;56.20
25732;DHT22;13585;50.864;4.406;2022-09-13T13:19:43;26.20;56.40
25732;DHT22;13585;50.864;4.406;2022-09-13T13:25:34;26.20;56.40
25732;DHT22;13585;50.864;4.406;2022-09-13T13:31:07;26.20;56.60
25732;DHT22;13585;50.864;4.406;2022-09-13T13:33:46;26.20;56.60
25732;DHT22;13585;50.864;4.406;2022-09-13T13:36:24;26.20;56.70
25732;DHT22;13585;50.864;4.406;2022-09-13T13:38:51;26.20;56.70
25732;DHT22;13585;50.864;4.406;2022-09-13T13:41:37;26.20;56.70
25732;DHT22;13585;50.864;4.406;2022-09-13T13:54:03;26.20;57.00
25732;DHT22;13585;50.864;4.406;2022-09-13T14:00:46;26.20;57.30
25732;DHT22;13585;50.864;4.406;2022-09-13T14:03:58;26.20;57.30
25732;DHT22;13585;50.864;4.406;2022-09-13T14:06:52;26.10;57.30
25732;DHT22;13585;50.864;4.406;2022-09-13T14:12:29;26.10;57.50
25732;DHT22;13585;50.864;4.406;2022-09-13T14:15:40;26.10;58.40
25732;DHT22;13585;50.864;4.406;2022-09-13T14:26:36;26.10;59.10
25732;DHT22;13585;50.864;4.406;2022-09-13T14:29:06;26.10;59.20
25732;DHT22;13585;50.864;4.406;2022-09-13T14:31:32;26.00;59.40
25732;DHT22;13585;50.864;4.406;2022-09-13T14:33:58;26.10;59.30
25732;DHT22;13585;50.864;4.406;2022-09-13T14:40:23;26.10;59.70
25732;DHT22;13585;50.864;4.406;2022-09-13T14:43:19;26.00;59.70
25732;DHT22;13585;50.864;4.406;2022-09-13T14:45:51;26.10;60.00
25732;DHT22;13585;50.864;4.406;2022-09-13T14:48:40;26.10;59.70
25732;DHT22;13585;50.864;4.406;2022-09-13T14:51:25;26.00;59.70
25732;DHT22;13585;50.864;4.406;2022-09-13T14:53:58;26.00;59.60
25732;DHT22;13585;50.864;4.406;2022-09-13T14:56:39;26.10;59.40
25732;DHT22;13585;50.864;4.406;2022-09-13T14:59:28;26.00;59.60
25732;DHT22;13585;50.864;4.406;2022-09-13T15:02:31;26.00;59.30
25732;DHT22;13585;50.864;4.406;2022-09-13T15:05:04;26.10;59.30
25732;DHT22;13585;50.864;4.406;2022-09-13T15:07:33;26.10;59.00
25732;DHT22;13585;50.864;4.406;2022-09-13T15:18:01;26.10;59.00
25732;DHT22;13585;50.864;4.406;2022-09-13T15:20:42;26.10;58.90
25732;DHT22;13585;50.864;4.406;2022-09-13T15:25:54;26.00;58.70
25732;DHT22;13585;50.864;4.406;2022-09-13T15:28:28;26.00;58.70
25732;DHT22;13585;50.864;4.406;2022-09-13T15:30:56;26.10;58.60
25732;DHT22;13585;50.864;4.406;2022-09-13T15:33:29;26.10;58.70
25732;DHT22;13585;50.864;4.406;2022-09-13T15:36:14;26.10;58.80
25732;DHT22;13585;50.864;4.406;2022-09-13T15:41:33;26.10;58.60
25732;DHT22;13585;50.864;4.406;2022-09-13T15:44:36;26.10;58.40
25732;DHT22;13585;50.864;4.406;2022-09-13T15:47:09;26.10;58.70
25732;DHT22;13585;50.864;4.406;2022-09-13T15:49:37;26.10;59.30
25732;DHT22;13585;50.864;4.406;2022-09-13T15:52:04;26.10;59.40
25732;DHT22;13585;50.864;4.406;2022-09-13T15:54:39;26.10;59.30
25732;DHT22;13585;50.864;4.406;2022-09-13T15:57:26;26.00;59.30
25732;DHT22;13585;50.864;4.406;2022-09-13T15:59:53;26.00;59.50
25732;DHT22;13585;50.864;4.406;2022-09-13T16:02:42;26.10;59.20
25732;DHT22;13585;50.864;4.406;2022-09-13T16:09:17;26.10;58.90
25732;DHT22;13585;50.864;4.406;2022-09-13T16:11:44;26.10;58.80
25732;DHT22;13585;50.864;4.406;2022-09-13T16:14:11;26.10;58.60
25732;DHT22;13585;50.864;4.406;2022-09-13T16:16:55;26.10;58.50
25732;DHT22;13585;50.864;4.406;2022-09-13T16:34:03;26.20;59.50
25732;DHT22;13585;50.864;4.406;2022-09-13T16:36:32;26.10;60.50
25732;DHT22;13585;50.864;4.406;2022-09-13T16:38:58;26.00;61.60
25732;DHT22;13585;50.864;4.406;2022-09-13T16:41:24;26.00;62.40
25732;DHT22;13585;50.864;4.406;2022-09-13T16:43:50;25.90;63.00
25732;DHT22;13585;50.864;4.406;2022-09-13T16:46:27;25.90;63.20
25732;DHT22;13585;50.864;4.406;2022-09-13T16:49:42;26.00;63.70
25732;DHT22;13585;50.864;4.406;2022-09-13T16:52:39;25.90;64.10
25732;DHT22;13585;50.864;4.406;2022-09-13T16:55:36;25.90;64.10
25732;DHT22;13585;50.864;4.406;2022-09-13T16:58:10;25.90;65.00
25732;DHT22;13585;50.864;4.406;2022-09-13T17:00:45;25.90;65.70
25732;DHT22;13585;50.864;4.406;2022-09-13T17:03:37;25.80;65.70
25732;DHT22;13585;50.864;4.406;2022-09-13T17:06:26;25.80;66.20
25732;DHT22;13585;50.864;4.406;2022-09-13T17:08:58;25.80;66.60
25732;DHT22;13585;50.864;4.406;2022-09-13T17:11:28;25.80;67.10
25732;DHT22;13585;50.864;4.406;2022-09-13T17:17:04;25.70;67.30
25732;DHT22;13585;50.864;4.406;2022-09-13T17:29:35;25.80;67.50
25732;DHT22;13585;50.864;4.406;2022-09-13T17:32:05;25.80;67.40
25732;DHT22;13585;50.864;4.406;2022-09-13T17:34:34;25.70;68.10
25732;DHT22;13585;50.864;4.406;2022-09-13T17:41:08;25.80;68.30
25732;DHT22;13585;50.864;4.406;2022-09-13T17:50:36;25.70;68.30
25732;DHT22;13585;50.864;4.406;2022-09-13T17:53:11;25.80;68.10
25732;DHT22;13585;50.864;4.406;2022-09-13T17:55:58;25.70;68.20
25732;DHT22;13585;50.864;4.406;2022-09-13T17:58:26;25.80;68.00
25732;DHT22;13585;50.864;4.406;2022-09-13T18:01:06;25.80;68.30
25732;DHT22;13585;50.864;4.406;2022-09-13T18:03:33;25.70;68.30
25732;DHT22;13585;50.864;4.406;2022-09-13T18:06:02;25.80;68.50
25732;DHT22;13585;50.864;4.406;2022-09-13T18:08:37;25.80;68.30
25732;DHT22;13585;50.864;4.406;2022-09-13T18:11:16;25.80;68.30
25732;DHT22;13585;50.864;4.406;2022-09-13T18:13:44;25.80;68.40
25732;DHT22;13585;50.864;4.406;2022-09-13T18:16:21;25.80;68.20
25732;DHT22;13585;50.864;4.406;2022-09-13T18:18:52;25.80;68.30
25732;DHT22;13585;50.864;4.406;2022-09-13T18:21:47;25.80;68.30
25732;DHT22;13585;50.864;4.406;2022-09-13T18:24:34;25.80;68.50
25732;DHT22;13585;50.864;4.406;2022-09-13T18:27:01;25.70;68.40
25732;DHT22;13585;50.864;4.406;2022-09-13T18:29:28;25.80;68.80
25732;DHT22;13585;50.864;4.406;2022-09-13T18:31:56;25.70;68.50
25732;DHT22;13585;50.864;4.406;2022-09-13T18:34:41;25.70;68.60
25732;DHT22;13585;50.864;4.406;2022-09-13T18:37:19;25.70;68.90
25732;DHT22;13585;50.864;4.406;2022-09-13T18:39:45;25.70;68.70
25732;DHT22;13585;50.864;4.406;2022-09-13T18:42:26;25.70;68.80
25732;DHT22;13585;50.864;4.406;2022-09-13T18:44:59;25.80;68.80
25732;DHT22;13585;50.864;4.406;2022-09-13T18:47:25;25.80;68.80
25732;DHT22;13585;50.864;4.406;2022-09-13T18:49:54;25.80;68.70
25732;DHT22;13585;50.864;4.406;2022-09-13T18:52:33;25.80;68.80
25732;DHT22;13585;50.864;4.406;2022-09-13T18:55:01;25.70;68.80
25732;DHT22;13585;50.864;4.406;2022-09-13T18:57:35;25.70;68.90
25732;DHT22;13585;50.864;4.406;2022-09-13T19:00:19;25.80;68.90
25732;DHT22;13585;50.864;4.406;2022-09-13T19:02:48;25.70;68.70
25732;DHT22;13585;50.864;4.406;2022-09-13T19:05:14;25.70;68.50
25732;DHT22;13585;50.864;4.406;2022-09-13T19:08:27;25.70;68.60
25732;DHT22;13585;50.864;4.406;2022-09-13T19:11:17;25.80;68.50
25732;DHT22;13585;50.864;4.406;2022-09-13T19:24:32;25.80;68.10
25732;DHT22;13585;50.864;4.406;2022-09-13T19:27:01;25.70;68.20
25732;DHT22;13585;50.864;4.406;2022-09-13T19:29:36;25.80;68.10
25732;DHT22;13585;50.864;4.406;2022-09-13T19:32:34;25.80;68.00
25732;DHT22;13585;50.864;4.406;2022-09-13T19:35:00;25.70;67.90
25732;DHT22;13585;50.864;4.406;2022-09-13T19:37:26;25.70;67.80
25732;DHT22;13585;50.864;4.406;2022-09-13T19:39:58;25.70;67.90
25732;DHT22;13585;50.864;4.406;2022-09-13T19:42:29;25.70;67.60
25732;DHT22;13585;50.864;4.406;2022-09-13T19:45:37;25.70;67.60
25732;DHT22;13585;50.864;4.406;2022-09-13T19:48:03;25.70;67.60
25732;DHT22;13585;50.864;4.406;2022-09-13T19:50:37;25.70;67.30
25732;DHT22;13585;50.864;4.406;2022-09-13T19:53:06;25.70;67.60
25732;DHT22;13585;50.864;4.406;2022-09-13T20:01:48;25.90;67.00
25732;DHT22;13585;50.864;4.406;2022-09-13T20:04:19;25.90;66.10
25732;DHT22;13585;50.864;4.406;2022-09-13T20:06:47;25.90;65.90
25732;DHT22;13585;50.864;4.406;2022-09-13T20:09:18;25.90;65.70
25732;DHT22;13585;50.864;4.406;2022-09-13T20:11:45;26.00;65.50
25732;DHT22;13585;50.864;4.406;2022-09-13T20:14:13;25.90;65.10
25732;DHT22;13585;50.864;4.406;2022-09-13T20:16:40;26.00;64.90
25732;DHT22;13585;50.864;4.406;2022-09-13T20:19:07;26.00;64.80
25732;DHT22;13585;50.864;4.406;2022-09-13T20:21:35;26.00;64.60
25732;DHT22;13585;50.864;4.406;2022-09-13T20:24:03;26.00;64.30
25732;DHT22;13585;50.864;4.406;2022-09-13T20:26:31;26.10;64.10
25732;DHT22;13585;50.864;4.406;2022-09-13T20:29:16;26.10;64.00
25732;DHT22;13585;50.864;4.406;2022-09-13T20:31:42;26.10;64.00
25732;DHT22;13585;50.864;4.406;2022-09-13T20:34:14;26.10;63.60
25732;DHT22;13585;50.864;4.406;2022-09-13T20:36:41;26.10;63.60
25732;DHT22;13585;50.864;4.406;2022-09-13T20:39:11;26.10;63.40
25732;DHT22;13585;50.864;4.406;2022-09-13T20:41:39;26.10;63.30
25732;DHT22;13585;50.864;4.406;2022-09-13T20:44:06;26.20;63.30
25732;DHT22;13585;50.864;4.406;2022-09-13T20:46:32;26.10;63.00
25732;DHT22;13585;50.864;4.406;2022-09-13T20:48:58;26.20;63.10
25732;DHT22;13585;50.864;4.406;2022-09-13T20:51:24;26.20;63.10
25732;DHT22;13585;50.864;4.406;2022-09-13T20:53:54;26.10;63.00
25732;DHT22;13585;50.864;4.406;2022-09-13T20:56:21;26.20;63.00
25732;DHT22;13585;50.864;4.406;2022-09-13T20:58:51;26.20;62.80
25732;DHT22;13585;50.864;4.406;2022-09-13T21:01:18;26.20;62.70